createdAt,value
2022-09-09T00:02:39.508Z,100.00
2022-09-09T00:05:41.208Z,100.00
2022-09-09T00:08:48.565Z,100.00
2022-09-09T00:11:54.414Z,100.00
2022-09-09T00:14:56.558Z,100.00
2022-09-09T00:18:16.531Z,100.00
2022-09-09T00:21:18.469Z,100.00
2022-09-09T00:24:19.981Z,100.00
2022-09-09T00:27:40.292Z,100.00
2022-09-09T00:30:42.630Z,100.00
2022-09-09T00:33:44.347Z,100.00
2022-09-09T00:36:45.941Z,100.00
2022-09-09T00:39:53.062Z,100.00
2022-09-09T00:43:14.880Z,100.00
2022-09-09T00:46:19.477Z,100.00
2022-09-09T00:49:24.423Z,100.00
2022-09-09T00:52:31.565Z,100.00
2022-09-09T00:55:33.565Z,100.00
2022-09-09T00:58:35.203Z,100.00
2022-09-09T01:01:36.996Z,100.00
2022-09-09T01:04:38.771Z,100.00
2022-09-09T01:07:40.825Z,100.00
2022-09-09T01:10:47.196Z,100.00
2022-09-09T01:13:50.926Z,100.00
2022-09-09T01:16:54.725Z,100.00
2022-09-09T01:19:59.457Z,100.00
2022-09-09T01:23:36.620Z,100.00
2022-09-09T01:26:49.305Z,100.00
2022-09-09T01:30:00.656Z,100.00
2022-09-09T01:33:04.305Z,100.00
2022-09-09T01:36:07.601Z,100.00
2022-09-09T01:39:15.994Z,100.00
2022-09-09T01:42:20.005Z,100.00
2022-09-09T01:45:21.686Z,100.00
2022-09-09T01:48:23.950Z,100.00
2022-09-09T01:51:36.121Z,100.00
2022-09-09T01:54:41.102Z,100.00
2022-09-09T01:58:10.105Z,100.00
2022-09-09T02:01:32.599Z,100.00
2022-09-09T02:04:35.420Z,100.00
2022-09-09T02:07:42.073Z,100.00
2022-09-09T02:11:02.745Z,100.00
2022-09-09T02:14:17.938Z,100.00
2022-09-09T02:17:27.737Z,100.00
2022-09-09T02:20:41.617Z,100.00
2022-09-09T02:23:43.973Z,100.00
2022-09-09T02:26:48.770Z,100.00
2022-09-09T02:29:52.910Z,100.00
2022-09-09T02:33:04.904Z,100.00
2022-09-09T02:36:25.427Z,100.00
2022-09-09T02:39:27.132Z,100.00
2022-09-09T02:42:28.686Z,100.00
2022-09-09T02:45:52.706Z,100.00
2022-09-09T02:49:16.838Z,100.00
2022-09-09T02:52:23.498Z,100.00
2022-09-09T02:55:28.696Z,100.00
2022-09-09T02:58:32.637Z,100.00
2022-09-09T03:01:41.090Z,100.00
2022-09-09T03:04:45.496Z,100.00
2022-09-09T03:07:48.570Z,100.00
2022-09-09T03:10:53.980Z,100.00
2022-09-09T03:13:57.091Z,100.00
2022-09-09T03:17:02.013Z,100.00
2022-09-09T03:20:07.125Z,100.00
2022-09-09T03:23:12.380Z,100.00
2022-09-09T03:26:17.087Z,100.00
2022-09-09T03:29:21.390Z,100.00
2022-09-09T03:32:23.586Z,100.00
2022-09-09T03:35:26.212Z,100.00
2022-09-09T03:38:27.756Z,100.00
2022-09-09T03:41:30.062Z,100.00
2022-09-09T03:44:32.597Z,100.00
2022-09-09T03:47:34.205Z,100.00
2022-09-09T03:50:40.467Z,100.00
2022-09-09T03:53:42.325Z,100.00
2022-09-09T03:56:43.920Z,100.00
2022-09-09T03:59:48.017Z,100.00
2022-09-09T04:02:50.989Z,100.00
2022-09-09T04:05:53.786Z,100.00
2022-09-09T04:08:56.434Z,100.00
2022-09-09T04:12:00.910Z,100.00
2022-09-09T04:15:03.342Z,100.00
2022-09-09T04:18:06.645Z,100.00
2022-09-09T04:21:09.380Z,100.00
2022-09-09T04:24:11.093Z,100.00
2022-09-09T04:27:13.221Z,100.00
2022-09-09T04:30:15.750Z,100.00
2022-09-09T04:33:18.447Z,100.00
2022-09-09T04:36:20.750Z,100.00
2022-09-09T04:39:24.050Z,100.00
2022-09-09T04:42:29.353Z,100.00
2022-09-09T04:45:31.449Z,100.00
2022-09-09T04:48:33.312Z,100.00
2022-09-09T04:51:36.270Z,100.00
2022-09-09T04:54:38.174Z,100.00
2022-09-09T04:57:40.854Z,100.00
2022-09-09T05:00:43.428Z,100.00
2022-09-09T05:03:48.166Z,100.00
2022-09-09T05:06:53.595Z,100.00
2022-09-09T05:09:55.385Z,100.00
2022-09-09T05:12:57.205Z,100.00
2022-09-09T05:16:01.853Z,100.00
2022-09-09T05:19:04.332Z,100.00
2022-09-09T05:22:21.475Z,100.00
2022-09-09T05:25:27.045Z,100.00
2022-09-09T05:28:30.340Z,100.00
2022-09-09T05:31:32.752Z,100.00
2022-09-09T05:34:38.675Z,100.00
2022-09-09T05:37:40.877Z,100.00
2022-09-09T05:40:48.641Z,100.00
2022-09-09T05:43:50.566Z,100.00
2022-09-09T05:46:53.248Z,100.00
2022-09-09T05:49:55.681Z,100.00
2022-09-09T05:52:57.289Z,100.00
2022-09-09T05:56:04.339Z,100.00
2022-09-09T05:59:08.580Z,100.00
2022-09-09T06:02:10.524Z,100.00
2022-09-09T06:05:13.798Z,100.00
2022-09-09T06:08:16.046Z,100.00
2022-09-09T06:11:19.067Z,100.00
2022-09-09T06:14:21.513Z,100.00
2022-09-09T06:17:24.716Z,100.00
2022-09-09T06:20:27.321Z,100.00
2022-09-09T06:23:29.517Z,100.00
2022-09-09T06:26:31.972Z,100.00
2022-09-09T06:29:35.324Z,100.00
2022-09-09T06:32:38.846Z,100.00
2022-09-09T06:35:40.493Z,100.00
2022-09-09T06:38:43.318Z,100.00
2022-09-09T06:41:48.346Z,100.00
2022-09-09T06:45:28.417Z,100.00
2022-09-09T06:48:33.862Z,100.00
2022-09-09T06:51:36.840Z,100.00
2022-09-09T06:54:39.230Z,100.00
2022-09-09T06:57:41.578Z,100.00
2022-09-09T07:00:51.606Z,100.00
2022-09-09T07:03:55.559Z,100.00
2022-09-09T07:06:57.317Z,100.00
2022-09-09T07:10:00.831Z,100.00
2022-09-09T07:13:03.291Z,100.00
2022-09-09T07:16:12.292Z,100.00
2022-09-09T07:19:15.365Z,100.00
2022-09-09T07:22:18.243Z,100.00
2022-09-09T07:25:21.971Z,100.00
2022-09-09T07:28:23.895Z,100.00
2022-09-09T07:31:32.994Z,100.00
2022-09-09T07:34:35.326Z,100.00
2022-09-09T07:37:38.714Z,100.00
2022-09-09T07:40:40.626Z,100.00
2022-09-09T07:43:43.149Z,100.00
2022-09-09T07:46:46.591Z,100.00
2022-09-09T07:49:56.534Z,100.00
2022-09-09T07:53:03.647Z,100.00
2022-09-09T07:56:10.275Z,100.00
2022-09-09T07:59:13.104Z,100.00
2022-09-09T08:02:16.764Z,100.00
2022-09-09T08:05:19.533Z,100.00
2022-09-09T08:08:21.302Z,100.00
2022-09-09T08:11:24.139Z,100.00
2022-09-09T08:14:25.906Z,100.00
2022-09-09T08:17:27.830Z,100.00
2022-09-09T08:20:30.148Z,100.00
2022-09-09T08:23:32.470Z,100.00
2022-09-09T08:26:35.608Z,100.00
2022-09-09T08:29:38.923Z,100.00
2022-09-09T08:32:43.455Z,100.00
2022-09-09T08:35:52.162Z,100.00
2022-09-09T08:38:57.613Z,100.00
2022-09-09T08:42:03.680Z,100.00
2022-09-09T08:45:20.588Z,100.00
2022-09-09T08:48:27.768Z,100.00
2022-09-09T08:51:30.316Z,100.00
2022-09-09T08:54:51.126Z,100.00
2022-09-09T09:01:17.594Z,100.00
2022-09-09T09:04:30.148Z,100.00
2022-09-09T09:07:48.893Z,100.00
2022-09-09T09:10:54.982Z,100.00
2022-09-09T09:14:00.531Z,100.00
2022-09-09T09:17:06.528Z,100.00
2022-09-09T09:20:13.451Z,100.00
2022-09-09T09:23:26.373Z,97.63
2022-09-09T09:26:32.135Z,98.93
2022-09-09T09:29:41.760Z,100.00
2022-09-09T09:33:01.056Z,100.00
2022-09-09T09:36:04.342Z,100.00
2022-09-09T09:42:31.605Z,100.00
2022-09-09T09:45:34.404Z,98.90
2022-09-09T09:48:38.316Z,100.00
2022-09-09T09:51:41.182Z,100.00
2022-09-09T09:54:43.322Z,99.10
2022-09-09T09:57:45.814Z,96.33
2022-09-09T10:00:52.235Z,92.13
2022-09-09T10:03:57.988Z,89.92
2022-09-09T10:07:00.680Z,90.50
2022-09-09T10:10:02.670Z,94.50
2022-09-09T10:13:06.663Z,97.27
2022-09-09T10:16:11.780Z,99.63
2022-09-09T10:19:13.747Z,99.74
2022-09-09T10:22:18.606Z,100.00
2022-09-09T10:25:20.408Z,100.00
2022-09-09T10:28:31.849Z,100.00
2022-09-09T10:31:45.587Z,98.67
2022-09-09T10:34:57.990Z,96.18
2022-09-09T10:38:18.782Z,95.88
2022-09-09T10:41:21.085Z,94.80
2022-09-09T10:44:26.062Z,94.31
2022-09-09T10:47:37.097Z,91.25
2022-09-09T10:51:00.523Z,91.54
2022-09-09T10:54:09.225Z,88.97
2022-09-09T10:57:13.062Z,90.13
2022-09-09T11:00:16.254Z,93.71
2022-09-09T11:03:25.940Z,96.37
2022-09-09T11:06:30.592Z,99.74
2022-09-09T11:09:33.542Z,100.00
2022-09-09T11:12:35.379Z,100.00
2022-09-09T11:15:47.482Z,100.00
2022-09-09T11:18:49.373Z,100.00
2022-09-09T11:21:52.918Z,100.00
2022-09-09T11:24:55.716Z,100.00
2022-09-09T11:27:57.326Z,100.00
2022-09-09T11:30:58.963Z,100.00
2022-09-09T11:34:00.678Z,100.00
2022-09-09T11:37:21.039Z,100.00
2022-09-09T11:40:29.097Z,100.00
2022-09-09T11:43:34.966Z,100.00
2022-09-09T11:46:39.161Z,100.00
2022-09-09T11:49:42.796Z,100.00
2022-09-09T11:52:47.861Z,100.00
2022-09-09T11:56:00.755Z,100.00
2022-09-09T11:59:04.823Z,100.00
2022-09-09T12:02:16.843Z,100.00
2022-09-09T12:05:21.060Z,100.00
2022-09-09T12:08:25.979Z,100.00
2022-09-09T12:11:40.209Z,100.00
2022-09-09T12:14:42.920Z,100.00
2022-09-09T12:17:45.028Z,100.00
2022-09-09T12:20:53.364Z,100.00
2022-09-09T12:23:57.369Z,100.00
2022-09-09T12:26:59.156Z,100.00
2022-09-09T12:30:16.035Z,100.00
2022-09-09T12:33:18.436Z,100.00
2022-09-09T12:36:20.843Z,100.00
2022-09-09T12:39:26.217Z,100.00
2022-09-09T12:42:27.863Z,100.00
2022-09-09T12:45:30.930Z,100.00
2022-09-09T12:48:34.269Z,100.00
2022-09-09T12:51:36.042Z,100.00
2022-09-09T12:54:44.929Z,100.00
2022-09-09T12:57:46.798Z,100.00
2022-09-09T13:00:53.383Z,100.00
2022-09-09T13:03:55.203Z,100.00
2022-09-09T13:07:07.865Z,100.00
2022-09-09T13:10:13.258Z,100.00
2022-09-09T13:13:23.520Z,100.00
2022-09-09T13:16:34.910Z,100.00
2022-09-09T13:19:38.715Z,100.00
2022-09-09T13:22:41.711Z,100.00
2022-09-09T13:25:44.826Z,100.00
2022-09-09T13:28:47.483Z,100.00
2022-09-09T13:31:49.090Z,100.00
2022-09-09T13:34:54.692Z,100.00
2022-09-09T13:37:56.328Z,100.00
2022-09-09T13:40:58.727Z,100.00
2022-09-09T13:44:00.322Z,100.00
2022-09-09T13:47:09.966Z,100.00
2022-09-09T13:50:25.574Z,100.00
2022-09-09T13:53:27.275Z,100.00
2022-09-09T13:56:28.846Z,100.00
2022-09-09T13:59:54.006Z,100.00
2022-09-09T14:02:52.324Z,100.00
2022-09-09T14:05:54.725Z,100.00
2022-09-09T14:08:56.277Z,100.00
2022-09-09T14:11:57.831Z,100.00
2022-09-09T14:15:00.745Z,100.00
2022-09-09T14:18:03.169Z,100.00
2022-09-09T14:21:04.746Z,100.00
2022-09-09T14:24:06.904Z,100.00
2022-09-09T14:27:08.490Z,100.00
2022-09-09T14:30:10.496Z,100.00
2022-09-09T14:33:12.866Z,100.00
2022-09-09T14:36:14.483Z,100.00
2022-09-09T14:39:16.215Z,100.00
2022-09-09T14:42:17.905Z,100.00
2022-09-09T14:45:19.843Z,100.00
2022-09-09T14:48:21.366Z,100.00
2022-09-09T14:51:24.184Z,100.00
2022-09-09T14:54:25.714Z,100.00
2022-09-09T14:57:27.277Z,100.00
2022-09-09T15:00:28.885Z,100.00
2022-09-09T15:03:30.467Z,100.00
2022-09-09T15:06:34.161Z,100.00
2022-09-09T15:09:35.883Z,100.00
2022-09-09T15:12:37.556Z,98.48
2022-09-09T15:15:39.188Z,93.59
2022-09-09T15:18:43.671Z,91.91
2022-09-09T15:21:45.461Z,96.00
2022-09-09T15:24:47.042Z,97.67
2022-09-09T15:27:48.590Z,98.16
2022-09-09T15:30:50.796Z,99.62
2022-09-09T15:33:53.118Z,99.68
2022-09-09T15:36:56.509Z,89.71
2022-09-09T15:39:59.817Z,92.71
2022-09-09T15:43:01.851Z,89.29
2022-09-09T15:46:12.238Z,94.17
2022-09-09T15:49:20.771Z,97.49
2022-09-09T15:52:22.358Z,98.70
2022-09-09T15:55:25.290Z,98.99
2022-09-09T15:58:27.075Z,97.16
2022-09-09T16:01:28.726Z,97.18
2022-09-09T16:04:30.634Z,92.63
2022-09-09T16:07:32.189Z,90.39
2022-09-09T16:10:33.734Z,91.34
2022-09-09T16:13:35.823Z,94.79
2022-09-09T16:16:37.606Z,97.34
2022-09-09T16:19:39.142Z,92.27
2022-09-09T16:22:41.137Z,91.84
2022-09-09T16:25:43.301Z,93.70
2022-09-09T16:28:44.864Z,95.40
2022-09-09T16:31:47.941Z,98.34
2022-09-09T16:34:49.911Z,100.00
2022-09-09T16:37:51.487Z,100.00
2022-09-09T16:40:53.203Z,100.00
2022-09-09T16:43:59.178Z,100.00
2022-09-09T16:47:01.224Z,100.00
2022-09-09T16:50:02.838Z,100.00
2022-09-09T16:53:07.592Z,100.00
2022-09-09T16:56:09.831Z,100.00
2022-09-09T16:59:12.775Z,100.00
2022-09-09T17:02:14.399Z,100.00
2022-09-09T17:05:16.053Z,100.00
2022-09-09T17:08:17.566Z,100.00
2022-09-09T17:11:19.634Z,100.00
2022-09-09T17:14:21.913Z,100.00
2022-09-09T17:17:31.725Z,100.00
2022-09-09T17:20:46.047Z,100.00
2022-09-09T17:23:48.834Z,100.00
2022-09-09T17:26:50.363Z,100.00
2022-09-09T17:29:52.251Z,100.00
2022-09-09T17:32:55.586Z,100.00
2022-09-09T17:35:58.613Z,100.00
2022-09-09T17:39:01.020Z,100.00
2022-09-09T17:42:02.661Z,100.00
2022-09-09T17:45:04.570Z,100.00
2022-09-09T17:48:07.943Z,100.00
2022-09-09T17:51:10.067Z,100.00
2022-09-09T17:54:16.284Z,100.00
2022-09-09T17:57:23.220Z,100.00
2022-09-09T18:00:24.806Z,100.00
2022-09-09T18:03:26.417Z,100.00
2022-09-09T18:06:29.538Z,100.00
2022-09-09T18:09:31.187Z,100.00
2022-09-09T18:12:32.752Z,100.00
2022-09-09T18:15:48.762Z,100.00
2022-09-09T18:18:51.949Z,100.00
2022-09-09T18:21:54.134Z,100.00
2022-09-09T18:24:57.965Z,100.00
2022-09-09T18:27:59.994Z,100.00
2022-09-09T18:31:04.535Z,100.00
2022-09-09T18:34:07.182Z,100.00
2022-09-09T18:37:10.360Z,100.00
2022-09-09T18:40:11.983Z,100.00
2022-09-09T18:43:13.610Z,100.00
2022-09-09T18:46:16.390Z,100.00
2022-09-09T18:49:18.374Z,100.00
2022-09-09T18:52:19.919Z,100.00
2022-09-09T18:55:21.703Z,100.00
2022-09-09T18:58:23.290Z,100.00
2022-09-09T19:01:25.068Z,100.00
2022-09-09T19:04:27.377Z,100.00
2022-09-09T19:07:29.203Z,100.00
2022-09-09T19:10:31.774Z,100.00
2022-09-09T19:13:33.692Z,100.00
2022-09-09T19:16:35.481Z,100.00
2022-09-09T19:19:37.074Z,100.00
2022-09-09T19:22:38.574Z,100.00
2022-09-09T19:25:40.177Z,100.00
2022-09-09T19:28:42.647Z,100.00
2022-09-09T19:31:55.390Z,100.00
2022-09-09T19:35:04.034Z,100.00
2022-09-09T19:38:05.565Z,100.00
2022-09-09T19:41:10.972Z,100.00
2022-09-09T19:44:13.348Z,100.00
2022-09-09T19:47:15.114Z,100.00
2022-09-09T19:50:16.918Z,100.00
2022-09-09T19:53:18.457Z,100.00
2022-09-09T19:56:20.617Z,100.00
2022-09-09T19:59:22.554Z,100.00
2022-09-09T20:02:25.165Z,100.00
2022-09-09T20:05:26.815Z,100.00
2022-09-09T20:08:28.317Z,100.00
2022-09-09T20:11:29.835Z,100.00
2022-09-09T20:14:33.209Z,100.00
2022-09-09T20:17:37.633Z,100.00
2022-09-09T20:20:42.824Z,100.00
2022-09-09T20:23:44.478Z,100.00
2022-09-09T20:26:47.362Z,100.00
2022-09-09T20:29:48.909Z,100.00
2022-09-09T20:32:50.414Z,100.00
2022-09-09T20:35:54.146Z,100.00
2022-09-09T20:38:57.994Z,100.00
2022-09-09T20:41:59.521Z,100.00
2022-09-09T20:45:01.174Z,100.00
2022-09-09T20:48:02.819Z,100.00
2022-09-09T20:51:09.811Z,100.00
2022-09-09T20:54:12.435Z,100.00
2022-09-09T20:57:16.654Z,100.00
2022-09-09T21:00:18.235Z,100.00
2022-09-09T21:03:19.774Z,100.00
2022-09-09T21:06:21.384Z,100.00
2022-09-09T21:09:24.487Z,100.00
2022-09-09T21:12:25.996Z,100.00
2022-09-09T21:15:27.614Z,100.00
2022-09-09T21:18:29.277Z,100.00
2022-09-09T21:21:30.989Z,100.00
2022-09-09T21:24:32.554Z,100.00
2022-09-09T21:27:34.699Z,100.00
2022-09-09T21:30:40.703Z,100.00
2022-09-09T21:33:46.246Z,100.00
2022-09-09T21:36:47.780Z,100.00
2022-09-09T21:39:49.315Z,100.00
2022-09-09T21:42:50.902Z,100.00
2022-09-09T21:45:52.518Z,100.00
2022-09-09T21:48:56.464Z,100.00
2022-09-09T21:51:58.394Z,100.00
2022-09-09T21:54:59.945Z,100.00
2022-09-09T21:58:01.493Z,100.00
2022-09-09T22:01:08.130Z,100.00
2022-09-09T22:04:09.661Z,100.00
2022-09-09T22:07:11.186Z,100.00
2022-09-09T22:10:13.020Z,100.00
2022-09-09T22:13:14.959Z,100.00
2022-09-09T22:16:19.011Z,100.00
2022-09-09T22:19:20.609Z,100.00
2022-09-09T22:22:22.156Z,100.00
2022-09-09T22:25:23.678Z,100.00
2022-09-09T22:28:25.177Z,100.00
2022-09-09T22:31:26.906Z,100.00
2022-09-09T22:34:28.709Z,100.00
2022-09-09T22:37:30.195Z,100.00
2022-09-09T22:40:32.590Z,100.00
2022-09-09T22:43:34.082Z,100.00
2022-09-09T22:46:36.114Z,100.00
2022-09-09T22:49:37.874Z,100.00
2022-09-09T22:52:39.697Z,100.00
2022-09-09T22:55:41.302Z,100.00
2022-09-09T22:58:42.875Z,100.00
2022-09-09T23:01:44.688Z,100.00
2022-09-09T23:04:46.697Z,100.00
2022-09-09T23:07:48.688Z,100.00
2022-09-09T23:10:50.227Z,100.00
2022-09-09T23:13:53.086Z,100.00
2022-09-09T23:16:55.553Z,100.00
2022-09-09T23:19:58.137Z,100.00
2022-09-09T23:23:01.464Z,100.00
2022-09-09T23:26:03.600Z,100.00
2022-09-09T23:29:05.157Z,100.00
2022-09-09T23:32:06.748Z,100.00
2022-09-09T23:35:08.780Z,100.00
2022-09-09T23:38:10.802Z,100.00
2022-09-09T23:41:13.273Z,100.00
2022-09-09T23:44:14.954Z,100.00
2022-09-09T23:47:16.585Z,100.00
2022-09-09T23:50:19.091Z,100.00
2022-09-09T23:53:21.273Z,100.00
2022-09-09T23:56:24.006Z,100.00
2022-09-09T23:59:25.740Z,100.00
